VJC7704 VVNB-UHWW
Flight info
| Callsign | VJC7704 |
|---|---|
| Flight time | N/A |
| Altitude | 31100 |
| Route | NAKHA3A NAKHA R474 WUY R343 GOSMA/K0856S1010 W82 UPMAT W56 LEBUN/K0830S1040 W56 NUDKU/K0833S1010 W56 VYK G212 SOTMU/K0830S1040 B339 HUR/K0833S1010 B334 NIRUG/K0832S1070 B334 TGO G341 WQG B451 SANAR SANAR2S |
| Aircraft | A21N/M-SDE3FGHIRWY/LB1 |
Departure
| Time | 2026-05-09 06:52 |
|---|---|
| Airport | Noi Bai International Airport (VVNB) |
Arrival
| Time | N/A |
|---|---|
| Airport | Vladivostok International Airport (UHWW) |
| Time | Latitude | Longitude | Altitude | Speed | Heading |
|---|---|---|---|---|---|
| 2026-05-09 06:30 | 21.21473 | 105.80674 | 48 ft | 0 kts | 287° |
| 2026-05-09 06:44 | 21.21475 | 105.80669 | 48 ft | 1 kts | 287° |
| 2026-05-09 06:44 | 21.21481 | 105.80648 | 48 ft | 4 kts | 287° |
| 2026-05-09 06:45 | 21.21497 | 105.80617 | 48 ft | 5 kts | 330° |
| 2026-05-09 06:45 | 21.21538 | 105.80625 | 48 ft | 6 kts | 20° |
| 2026-05-09 06:45 | 21.21586 | 105.80643 | 48 ft | 7 kts | 17° |
| 2026-05-09 06:45 | 21.21639 | 105.80660 | 48 ft | 8 kts | 17° |
| 2026-05-09 06:46 | 21.21696 | 105.80665 | 48 ft | 8 kts | 336° |
| 2026-05-09 06:46 | 21.21726 | 105.80608 | 48 ft | 9 kts | 287° |
| 2026-05-09 06:46 | 21.21746 | 105.80535 | 48 ft | 11 kts | 287° |
| 2026-05-09 06:46 | 21.21771 | 105.80447 | 48 ft | 13 kts | 287° |
| 2026-05-09 06:47 | 21.21802 | 105.80338 | 48 ft | 16 kts | 286° |
| 2026-05-09 06:47 | 21.21839 | 105.80209 | 48 ft | 19 kts | 287° |
| 2026-05-09 06:47 | 21.21878 | 105.80069 | 48 ft | 20 kts | 287° |
| 2026-05-09 06:47 | 21.21921 | 105.79924 | 48 ft | 20 kts | 288° |
| 2026-05-09 06:48 | 21.21965 | 105.79778 | 48 ft | 20 kts | 287° |
| 2026-05-09 06:48 | 21.22009 | 105.79628 | 48 ft | 21 kts | 287° |
| 2026-05-09 06:48 | 21.22053 | 105.79477 | 48 ft | 21 kts | 287° |
| 2026-05-09 06:48 | 21.22098 | 105.79322 | 48 ft | 21 kts | 287° |
| 2026-05-09 06:49 | 21.22140 | 105.79173 | 48 ft | 20 kts | 287° |
| 2026-05-09 06:49 | 21.22184 | 105.79024 | 48 ft | 21 kts | 288° |
| 2026-05-09 06:49 | 21.22228 | 105.78874 | 48 ft | 21 kts | 287° |
| 2026-05-09 06:49 | 21.22268 | 105.78734 | 48 ft | 18 kts | 287° |
| 2026-05-09 06:50 | 21.22298 | 105.78632 | 48 ft | 10 kts | 287° |
| 2026-05-09 06:50 | 21.22360 | 105.78611 | 48 ft | 11 kts | 15° |
| 2026-05-09 06:50 | 21.22438 | 105.78638 | 48 ft | 10 kts | 18° |
| 2026-05-09 06:50 | 21.22458 | 105.78678 | 48 ft | 7 kts | 111° |
| 2026-05-09 06:51 | 21.22450 | 105.78702 | 48 ft | 2 kts | 109° |
| 2026-05-09 06:51 | 21.22413 | 105.78827 | 48 ft | 47 kts | 107° |
| 2026-05-09 06:51 | 21.22247 | 105.79401 | 48 ft | 113 kts | 108° |
| 2026-05-09 06:51 | 21.21953 | 105.80419 | 48 ft | 169 kts | 107° |
| 2026-05-09 06:52 | 21.21571 | 105.81744 | 211 ft | 199 kts | 107° |
| 2026-05-09 06:52 | 21.21151 | 105.83145 | 921 ft | 197 kts | 106° |
| 2026-05-09 06:52 | 21.20771 | 105.84502 | 1721 ft | 193 kts | 103° |
| 2026-05-09 06:52 | 21.20404 | 105.85883 | 2158 ft | 196 kts | 103° |
| 2026-05-09 06:53 | 21.20021 | 105.87323 | 2407 ft | 209 kts | 104° |
| 2026-05-09 06:53 | 21.19599 | 105.88876 | 2636 ft | 224 kts | 104° |
| 2026-05-09 06:53 | 21.19142 | 105.90528 | 2861 ft | 240 kts | 105° |
| 2026-05-09 06:53 | 21.18646 | 105.92303 | 3161 ft | 254 kts | 105° |
| 2026-05-09 06:54 | 21.18129 | 105.94148 | 3583 ft | 264 kts | 105° |
| 2026-05-09 06:54 | 21.17599 | 105.96045 | 4162 ft | 266 kts | 105° |
| 2026-05-09 06:54 | 21.17348 | 105.97982 | 4697 ft | 269 kts | 81° |
| 2026-05-09 06:54 | 21.18047 | 105.99804 | 5243 ft | 271 kts | 52° |
| 2026-05-09 06:55 | 21.19505 | 106.01102 | 5775 ft | 275 kts | 30° |
| 2026-05-09 06:55 | 21.21201 | 106.02101 | 6306 ft | 279 kts | 30° |
| 2026-05-09 06:55 | 21.22889 | 106.03116 | 6833 ft | 282 kts | 30° |
| 2026-05-09 06:55 | 21.24616 | 106.04168 | 7356 ft | 285 kts | 30° |
| 2026-05-09 06:56 | 21.26335 | 106.05225 | 7840 ft | 289 kts | 30° |
| 2026-05-09 06:56 | 21.28096 | 106.06316 | 8342 ft | 292 kts | 30° |
| 2026-05-09 06:56 | 21.29846 | 106.07404 | 8835 ft | 295 kts | 30° |
| 2026-05-09 06:56 | 21.31621 | 106.08508 | 9269 ft | 298 kts | 30° |
| 2026-05-09 06:57 | 21.33421 | 106.09631 | 9710 ft | 300 kts | 30° |
| 2026-05-09 06:57 | 21.35235 | 106.10762 | 10154 ft | 303 kts | 30° |
| 2026-05-09 06:57 | 21.37082 | 106.11914 | 10435 ft | 312 kts | 30° |
| 2026-05-09 06:57 | 21.38998 | 106.13110 | 10659 ft | 324 kts | 30° |
| 2026-05-09 06:58 | 21.40982 | 106.14350 | 10842 ft | 335 kts | 30° |
| 2026-05-09 06:58 | 21.43034 | 106.15633 | 11044 ft | 346 kts | 30° |
| 2026-05-09 06:58 | 21.45149 | 106.16955 | 11271 ft | 355 kts | 30° |
| 2026-05-09 06:58 | 21.47302 | 106.18302 | 11634 ft | 359 kts | 30° |
| 2026-05-09 06:59 | 21.49472 | 106.19659 | 12050 ft | 362 kts | 30° |
| 2026-05-09 06:59 | 21.51654 | 106.21027 | 12464 ft | 364 kts | 30° |
| 2026-05-09 06:59 | 21.53851 | 106.22404 | 12892 ft | 366 kts | 30° |
| 2026-05-09 06:59 | 21.56060 | 106.23789 | 13264 ft | 368 kts | 30° |
| 2026-05-09 07:00 | 21.58286 | 106.25187 | 13619 ft | 371 kts | 30° |
| 2026-05-09 07:00 | 21.60528 | 106.26592 | 14015 ft | 373 kts | 30° |
| 2026-05-09 07:00 | 21.62781 | 106.28006 | 14406 ft | 375 kts | 30° |
| 2026-05-09 07:00 | 21.65044 | 106.29427 | 14774 ft | 377 kts | 30° |
| 2026-05-09 07:01 | 21.67317 | 106.30853 | 15131 ft | 379 kts | 30° |
| 2026-05-09 07:01 | 21.69602 | 106.32288 | 15483 ft | 381 kts | 30° |
| 2026-05-09 07:01 | 21.71905 | 106.33733 | 15787 ft | 384 kts | 30° |
| 2026-05-09 07:01 | 21.74222 | 106.35188 | 16109 ft | 386 kts | 30° |
| 2026-05-09 07:02 | 21.76552 | 106.36652 | 16436 ft | 388 kts | 30° |
| 2026-05-09 07:02 | 21.78893 | 106.38124 | 16757 ft | 390 kts | 30° |
| 2026-05-09 07:02 | 21.81248 | 106.39606 | 17049 ft | 393 kts | 30° |
| 2026-05-09 07:02 | 21.83618 | 106.41097 | 17331 ft | 395 kts | 30° |
| 2026-05-09 07:03 | 21.86002 | 106.42599 | 17607 ft | 398 kts | 30° |
| 2026-05-09 07:03 | 21.88402 | 106.44111 | 17891 ft | 400 kts | 30° |
| 2026-05-09 07:03 | 21.90811 | 106.45630 | 18184 ft | 401 kts | 30° |
| 2026-05-09 07:03 | 21.93231 | 106.47156 | 18450 ft | 404 kts | 30° |
| 2026-05-09 07:04 | 21.95642 | 106.48736 | 18695 ft | 407 kts | 32° |
| 2026-05-09 07:04 | 21.97973 | 106.50479 | 18968 ft | 408 kts | 36° |
| 2026-05-09 07:04 | 22.00214 | 106.52371 | 19281 ft | 408 kts | 38° |
| 2026-05-09 07:04 | 22.02422 | 106.54298 | 19610 ft | 408 kts | 39° |
| 2026-05-09 07:05 | 22.04628 | 106.56235 | 19873 ft | 410 kts | 38° |
| 2026-05-09 07:05 | 22.06847 | 106.58181 | 20106 ft | 412 kts | 38° |
| 2026-05-09 07:05 | 22.09079 | 106.60133 | 20340 ft | 414 kts | 38° |
| 2026-05-09 07:05 | 22.11322 | 106.62093 | 20570 ft | 416 kts | 38° |
| 2026-05-09 07:06 | 22.13587 | 106.64072 | 20783 ft | 418 kts | 38° |
| 2026-05-09 07:06 | 22.15866 | 106.66063 | 21022 ft | 419 kts | 39° |
| 2026-05-09 07:06 | 22.18083 | 106.68128 | 21250 ft | 421 kts | 42° |
| 2026-05-09 07:06 | 22.20199 | 106.70318 | 21462 ft | 423 kts | 44° |
| 2026-05-09 07:07 | 22.22315 | 106.72572 | 21668 ft | 424 kts | 44° |
| 2026-05-09 07:07 | 22.24383 | 106.74783 | 21861 ft | 426 kts | 44° |
| 2026-05-09 07:07 | 22.26512 | 106.77061 | 22056 ft | 428 kts | 44° |
| 2026-05-09 07:07 | 22.28650 | 106.79343 | 22236 ft | 430 kts | 44° |
| 2026-05-09 07:08 | 22.30767 | 106.81599 | 22459 ft | 431 kts | 44° |
| 2026-05-09 07:08 | 22.32912 | 106.83888 | 22743 ft | 431 kts | 45° |
| 2026-05-09 07:08 | 22.34790 | 106.86373 | 22946 ft | 433 kts | 58° |
| 2026-05-09 07:08 | 22.36109 | 106.89311 | 23127 ft | 434 kts | 72° |
| 2026-05-09 07:09 | 22.36830 | 106.92443 | 23330 ft | 434 kts | 80° |
| 2026-05-09 07:09 | 22.37383 | 106.95668 | 23528 ft | 436 kts | 81° |
| 2026-05-09 07:09 | 22.37912 | 106.98867 | 23707 ft | 438 kts | 81° |
| 2026-05-09 07:09 | 22.38463 | 107.02122 | 23898 ft | 439 kts | 80° |
| 2026-05-09 07:10 | 22.39025 | 107.05340 | 24081 ft | 441 kts | 80° |
| 2026-05-09 07:10 | 22.39605 | 107.08615 | 24274 ft | 443 kts | 80° |
| 2026-05-09 07:10 | 22.40185 | 107.11852 | 24470 ft | 444 kts | 79° |
| 2026-05-09 07:10 | 22.40776 | 107.15145 | 24656 ft | 445 kts | 79° |
| 2026-05-09 07:11 | 22.41361 | 107.18403 | 24846 ft | 446 kts | 79° |
| 2026-05-09 07:11 | 22.41956 | 107.21716 | 25030 ft | 448 kts | 79° |
| 2026-05-09 07:11 | 22.42543 | 107.24996 | 25171 ft | 450 kts | 79° |
| 2026-05-09 07:11 | 22.43146 | 107.28346 | 25277 ft | 454 kts | 79° |
| 2026-05-09 07:12 | 22.43752 | 107.31688 | 25435 ft | 455 kts | 79° |
| 2026-05-09 07:12 | 22.44355 | 107.35020 | 25611 ft | 457 kts | 79° |
| 2026-05-09 07:12 | 22.44968 | 107.38412 | 25768 ft | 458 kts | 79° |
| 2026-05-09 07:12 | 22.45575 | 107.41771 | 25926 ft | 460 kts | 79° |
| 2026-05-09 07:13 | 22.46190 | 107.45186 | 26104 ft | 461 kts | 79° |
| 2026-05-09 07:13 | 22.46798 | 107.48561 | 26257 ft | 462 kts | 79° |
| 2026-05-09 07:13 | 22.47415 | 107.51993 | 26406 ft | 464 kts | 79° |
| 2026-05-09 07:13 | 22.48025 | 107.55388 | 26553 ft | 465 kts | 79° |
| 2026-05-09 07:14 | 22.48643 | 107.58840 | 26719 ft | 466 kts | 79° |
| 2026-05-09 07:14 | 22.49254 | 107.62252 | 26874 ft | 467 kts | 79° |
| 2026-05-09 07:14 | 22.49874 | 107.65723 | 27009 ft | 469 kts | 79° |
| 2026-05-09 07:14 | 22.50487 | 107.69157 | 27162 ft | 470 kts | 79° |
| 2026-05-09 07:15 | 22.51109 | 107.72640 | 27316 ft | 471 kts | 79° |
| 2026-05-09 07:15 | 22.51731 | 107.76134 | 27450 ft | 472 kts | 79° |
| 2026-05-09 07:15 | 22.52345 | 107.79588 | 27590 ft | 473 kts | 79° |
| 2026-05-09 07:15 | 22.52969 | 107.83098 | 27739 ft | 474 kts | 79° |
| 2026-05-09 07:16 | 22.53584 | 107.86567 | 27872 ft | 475 kts | 79° |
| 2026-05-09 07:16 | 22.54209 | 107.90094 | 28000 ft | 476 kts | 79° |
| 2026-05-09 07:16 | 22.54826 | 107.93584 | 28123 ft | 478 kts | 79° |
| 2026-05-09 07:16 | 22.55453 | 107.97131 | 28247 ft | 479 kts | 79° |
| 2026-05-09 07:17 | 22.56073 | 108.00644 | 28359 ft | 481 kts | 79° |
| 2026-05-09 07:17 | 22.56703 | 108.04215 | 28508 ft | 481 kts | 79° |
| 2026-05-09 07:17 | 22.57321 | 108.07739 | 28691 ft | 481 kts | 79° |
| 2026-05-09 07:17 | 22.58034 | 108.11237 | 28864 ft | 481 kts | 72° |
| 2026-05-09 07:18 | 22.59400 | 108.14555 | 29001 ft | 479 kts | 57° |
| 2026-05-09 07:18 | 22.61404 | 108.17372 | 29159 ft | 475 kts | 43° |
| 2026-05-09 07:18 | 22.63917 | 108.19698 | 29369 ft | 471 kts | 34° |
| 2026-05-09 07:18 | 22.66506 | 108.21826 | 29553 ft | 471 kts | 33° |
| 2026-05-09 07:19 | 22.69147 | 108.23969 | 29715 ft | 471 kts | 33° |
| 2026-05-09 07:19 | 22.71754 | 108.26102 | 29879 ft | 472 kts | 33° |
| 2026-05-09 07:19 | 22.74369 | 108.28264 | 30046 ft | 473 kts | 34° |
| 2026-05-09 07:19 | 22.76978 | 108.30438 | 30215 ft | 473 kts | 34° |
| 2026-05-09 07:20 | 22.79603 | 108.32635 | 30354 ft | 474 kts | 34° |
| 2026-05-09 07:20 | 22.82194 | 108.34812 | 30504 ft | 475 kts | 34° |
| 2026-05-09 07:20 | 22.84806 | 108.37007 | 30674 ft | 475 kts | 34° |
| 2026-05-09 07:20 | 22.87415 | 108.39206 | 30865 ft | 475 kts | 33° |
| 2026-05-09 07:21 | 22.90026 | 108.41407 | 31018 ft | 476 kts | 33° |
| 2026-05-09 07:21 | 22.92640 | 108.43612 | 31115 ft | 477 kts | 33° |
| 2026-05-09 07:21 | 22.97913 | 108.48056 | 31122 ft | 484 kts | 33° |
| 2026-05-09 07:22 | 23.03253 | 108.52565 | 31128 ft | 488 kts | 33° |
| 2026-05-09 07:22 | 23.08622 | 108.57106 | 31130 ft | 488 kts | 33° |
| 2026-05-09 07:23 | 23.13981 | 108.61646 | 31130 ft | 488 kts | 33° |
| 2026-05-09 07:23 | 23.19317 | 108.66170 | 31126 ft | 488 kts | 33° |
| 2026-05-09 07:24 | 23.24668 | 108.70708 | 31125 ft | 488 kts | 33° |
| 2026-05-09 07:24 | 23.30035 | 108.75251 | 31125 ft | 487 kts | 33° |
| 2026-05-09 07:25 | 23.35381 | 108.79779 | 31126 ft | 487 kts | 33° |
| 2026-05-09 07:25 | 23.40731 | 108.84315 | 31127 ft | 488 kts | 33° |
| 2026-05-09 07:26 | 23.46082 | 108.88861 | 31131 ft | 489 kts | 33° |
| 2026-05-09 07:26 | 23.51444 | 108.93420 | 31136 ft | 489 kts | 33° |
| 2026-05-09 07:27 | 23.56800 | 108.97983 | 31137 ft | 488 kts | 33° |
| 2026-05-09 07:27 | 23.62123 | 109.02521 | 31135 ft | 488 kts | 33° |
| 2026-05-09 07:28 | 23.67471 | 109.07082 | 31129 ft | 488 kts | 33° |
| 2026-05-09 07:28 | 23.72837 | 109.11667 | 31137 ft | 488 kts | 32° |
| 2026-05-09 07:29 | 23.78260 | 109.16077 | 31134 ft | 485 kts | 28° |
| 2026-05-09 07:29 | 23.83879 | 109.20192 | 31135 ft | 485 kts | 28° |
| 2026-05-09 07:30 | 23.89492 | 109.24275 | 31137 ft | 485 kts | 28° |
| 2026-05-09 07:30 | 23.95072 | 109.28350 | 31138 ft | 484 kts | 28° |
| 2026-05-09 07:31 | 24.00672 | 109.32452 | 31141 ft | 484 kts | 28° |
| 2026-05-09 07:31 | 24.06274 | 109.36561 | 31140 ft | 484 kts | 28° |
| 2026-05-09 07:32 | 24.11844 | 109.40649 | 31144 ft | 485 kts | 28° |
| 2026-05-09 07:32 | 24.17456 | 109.44775 | 31147 ft | 485 kts | 27° |
| 2026-05-09 07:33 | 24.25877 | 109.50976 | 31150 ft | 485 kts | 28° |
| 2026-05-09 07:34 | 24.31469 | 109.55099 | 31148 ft | 484 kts | 28° |
| 2026-05-09 07:34 | 24.37064 | 109.59227 | 31144 ft | 484 kts | 28° |
| 2026-05-09 07:35 | 24.42641 | 109.63352 | 31146 ft | 485 kts | 28° |
| 2026-05-09 07:35 | 24.48225 | 109.67495 | 31147 ft | 485 kts | 28° |
| 2026-05-09 07:36 | 24.53836 | 109.71664 | 31151 ft | 486 kts | 28° |
| 2026-05-09 07:36 | 24.59416 | 109.75814 | 31154 ft | 486 kts | 28° |
| 2026-05-09 07:37 | 24.65032 | 109.79993 | 31159 ft | 486 kts | 28° |
| 2026-05-09 07:37 | 24.70638 | 109.84159 | 31163 ft | 486 kts | 28° |
| 2026-05-09 07:38 | 24.76261 | 109.88317 | 31170 ft | 487 kts | 28° |
| 2026-05-09 07:38 | 24.81891 | 109.92487 | 31170 ft | 488 kts | 28° |
| 2026-05-09 07:39 | 24.87525 | 109.96667 | 31170 ft | 488 kts | 27° |
| 2026-05-09 07:39 | 24.93121 | 110.00822 | 31169 ft | 488 kts | 28° |
| 2026-05-09 07:40 | 24.98784 | 110.05034 | 31167 ft | 488 kts | 28° |
| 2026-05-09 07:40 | 25.04393 | 110.09211 | 31170 ft | 488 kts | 28° |
| 2026-05-09 07:41 | 25.10008 | 110.13399 | 31163 ft | 488 kts | 28° |
| 2026-05-09 07:41 | 25.15636 | 110.17598 | 31166 ft | 488 kts | 28° |
| 2026-05-09 07:42 | 25.21298 | 110.21828 | 31161 ft | 490 kts | 28° |
| 2026-05-09 07:42 | 25.26944 | 110.26022 | 31158 ft | 489 kts | 27° |
| 2026-05-09 07:43 | 25.32574 | 110.30199 | 31160 ft | 489 kts | 28° |
| 2026-05-09 07:43 | 25.38211 | 110.34395 | 31164 ft | 488 kts | 27° |
| 2026-05-09 07:44 | 25.43837 | 110.38582 | 31170 ft | 489 kts | 27° |
| 2026-05-09 07:44 | 25.49494 | 110.42746 | 31186 ft | 489 kts | 27° |
| 2026-05-09 07:45 | 25.55154 | 110.46910 | 31198 ft | 488 kts | 27° |
| 2026-05-09 07:45 | 25.60892 | 110.50980 | 31197 ft | 486 kts | 25° |
| 2026-05-09 07:46 | 25.66630 | 110.54916 | 31193 ft | 487 kts | 25° |
| 2026-05-09 07:46 | 25.72359 | 110.58880 | 31189 ft | 487 kts | 25° |
| 2026-05-09 07:47 | 25.78143 | 110.62869 | 31189 ft | 486 kts | 24° |
| 2026-05-09 07:47 | 25.83893 | 110.66741 | 31196 ft | 487 kts | 24° |
| 2026-05-09 07:48 | 25.89711 | 110.70667 | 31211 ft | 488 kts | 25° |
| 2026-05-09 07:48 | 25.95485 | 110.74583 | 31234 ft | 487 kts | 24° |
| 2026-05-09 07:49 | 26.01226 | 110.78481 | 31260 ft | 485 kts | 25° |
| 2026-05-09 07:49 | 26.07013 | 110.82414 | 31240 ft | 486 kts | 24° |
| 2026-05-09 07:50 | 26.12820 | 110.86341 | 31213 ft | 487 kts | 24° |
| 2026-05-09 07:50 | 26.18601 | 110.90255 | 31204 ft | 488 kts | 24° |
| 2026-05-09 07:51 | 26.24386 | 110.94183 | 31192 ft | 491 kts | 24° |
| 2026-05-09 07:51 | 26.30197 | 110.98132 | 31190 ft | 488 kts | 24° |
| 2026-05-09 07:52 | 26.36004 | 111.02083 | 31190 ft | 488 kts | 24° |
| 2026-05-09 07:52 | 26.41830 | 111.06053 | 31191 ft | 488 kts | 24° |
| 2026-05-09 07:53 | 26.47605 | 111.09991 | 31190 ft | 489 kts | 24° |
| 2026-05-09 07:53 | 26.53440 | 111.13975 | 31184 ft | 491 kts | 24° |
| 2026-05-09 07:54 | 26.59248 | 111.17960 | 31183 ft | 492 kts | 25° |
| 2026-05-09 07:54 | 26.65001 | 111.22141 | 31185 ft | 495 kts | 26° |
| 2026-05-09 07:55 | 26.70765 | 111.26400 | 31178 ft | 495 kts | 26° |
| 2026-05-09 07:55 | 26.76533 | 111.30640 | 31172 ft | 497 kts | 26° |
| 2026-05-09 07:56 | 26.82303 | 111.34880 | 31171 ft | 497 kts | 26° |
| 2026-05-09 07:56 | 26.88114 | 111.39153 | 31164 ft | 498 kts | 26° |
| 2026-05-09 07:57 | 26.93941 | 111.43291 | 31162 ft | 495 kts | 23° |
| 2026-05-09 07:57 | 26.99897 | 111.47199 | 31163 ft | 497 kts | 22° |
| 2026-05-09 07:58 | 27.05853 | 111.51105 | 31165 ft | 498 kts | 22° |
| 2026-05-09 07:58 | 27.11803 | 111.55025 | 31166 ft | 496 kts | 22° |
| 2026-05-09 07:59 | 27.17813 | 111.58991 | 31166 ft | 498 kts | 23° |
| 2026-05-09 07:59 | 27.23706 | 111.63032 | 31165 ft | 498 kts | 24° |
| 2026-05-09 08:00 | 27.29643 | 111.67153 | 31160 ft | 499 kts | 24° |
| 2026-05-09 08:00 | 27.35536 | 111.71240 | 31170 ft | 500 kts | 24° |
| 2026-05-09 08:01 | 27.41491 | 111.75368 | 31184 ft | 500 kts | 24° |
| 2026-05-09 08:01 | 27.47411 | 111.79475 | 31192 ft | 500 kts | 24° |
| 2026-05-09 08:02 | 27.53317 | 111.83574 | 31193 ft | 501 kts | 24° |
| 2026-05-09 08:02 | 27.59263 | 111.87708 | 31180 ft | 501 kts | 24° |
| 2026-05-09 08:03 | 27.65206 | 111.91847 | 31168 ft | 500 kts | 24° |
| 2026-05-09 08:03 | 27.71112 | 111.95963 | 31158 ft | 501 kts | 24° |
| 2026-05-09 08:04 | 27.77051 | 112.00113 | 31148 ft | 501 kts | 24° |
| 2026-05-09 08:04 | 27.82980 | 112.04251 | 31147 ft | 501 kts | 24° |
| 2026-05-09 08:05 | 27.88927 | 112.08405 | 31149 ft | 504 kts | 24° |
| 2026-05-09 08:05 | 27.94891 | 112.12583 | 31152 ft | 503 kts | 24° |
| 2026-05-09 08:06 | 28.00828 | 112.16702 | 31151 ft | 504 kts | 23° |
| 2026-05-09 08:06 | 28.06814 | 112.20867 | 31151 ft | 504 kts | 25° |
| 2026-05-09 08:07 | 28.12557 | 112.25424 | 31146 ft | 506 kts | 27° |
| 2026-05-09 08:07 | 28.18276 | 112.30096 | 31139 ft | 506 kts | 27° |
| 2026-05-09 08:08 | 28.24064 | 112.34695 | 31141 ft | 506 kts | 26° |
| 2026-05-09 08:08 | 28.29831 | 112.39256 | 31139 ft | 506 kts | 26° |
| 2026-05-09 08:09 | 28.35597 | 112.43829 | 31136 ft | 508 kts | 26° |
| 2026-05-09 08:09 | 28.41399 | 112.48450 | 31135 ft | 506 kts | 26° |
| 2026-05-09 08:10 | 28.47167 | 112.53046 | 31128 ft | 507 kts | 26° |
| 2026-05-09 08:10 | 28.52929 | 112.57645 | 31129 ft | 506 kts | 26° |
| 2026-05-09 08:11 | 28.58667 | 112.62232 | 31128 ft | 507 kts | 25° |
| 2026-05-09 08:11 | 28.64475 | 112.66876 | 31121 ft | 508 kts | 26° |
| 2026-05-09 08:12 | 28.73143 | 112.73826 | 31124 ft | 509 kts | 26° |
| 2026-05-09 08:12 | 28.78943 | 112.78487 | 31123 ft | 509 kts | 26° |
| 2026-05-09 08:13 | 28.84698 | 112.83112 | 31123 ft | 510 kts | 26° |
| 2026-05-09 08:13 | 28.90522 | 112.87806 | 31122 ft | 509 kts | 26° |
| 2026-05-09 08:14 | 28.96315 | 112.92471 | 31166 ft | 514 kts | 26° |
| 2026-05-09 08:14 | 28.99211 | 112.94809 | 31327 ft | 514 kts | 26° |
| 2026-05-09 08:14 | 29.02145 | 112.97182 | 31516 ft | 514 kts | 26° |
| 2026-05-09 08:15 | 29.05045 | 112.99524 | 31632 ft | 516 kts | 26° |
| 2026-05-09 08:15 | 29.07998 | 113.01912 | 31791 ft | 516 kts | 25° |
| 2026-05-09 08:15 | 29.10922 | 113.04284 | 32037 ft | 514 kts | 25° |
| 2026-05-09 08:15 | 29.13811 | 113.06629 | 32266 ft | 513 kts | 26° |
| 2026-05-09 08:16 | 29.16723 | 113.08990 | 32474 ft | 512 kts | 25° |
| 2026-05-09 08:16 | 29.19612 | 113.11336 | 32689 ft | 511 kts | 25° |
| 2026-05-09 08:16 | 29.22505 | 113.13685 | 32916 ft | 509 kts | 25° |
| 2026-05-09 08:16 | 29.25380 | 113.16021 | 33105 ft | 509 kts | 25° |
| 2026-05-09 08:17 | 29.31164 | 113.20721 | 33116 ft | 509 kts | 25° |
| 2026-05-09 08:17 | 29.37041 | 113.25121 | 33116 ft | 500 kts | 19° |
| 2026-05-09 08:18 | 29.43167 | 113.28859 | 33115 ft | 496 kts | 16° |
| 2026-05-09 08:18 | 29.49306 | 113.32475 | 33115 ft | 497 kts | 16° |
| 2026-05-09 08:19 | 29.55412 | 113.36104 | 33117 ft | 495 kts | 16° |
| 2026-05-09 08:19 | 29.61512 | 113.39743 | 33110 ft | 495 kts | 16° |
| 2026-05-09 08:20 | 29.67633 | 113.43406 | 33116 ft | 496 kts | 16° |
| 2026-05-09 08:20 | 29.73736 | 113.47068 | 33110 ft | 494 kts | 16° |
| 2026-05-09 08:21 | 29.79822 | 113.50721 | 33114 ft | 493 kts | 16° |
| 2026-05-09 08:21 | 29.85932 | 113.54393 | 33109 ft | 493 kts | 16° |
| 2026-05-09 08:22 | 29.92019 | 113.58057 | 33107 ft | 493 kts | 16° |
| 2026-05-09 08:22 | 29.98164 | 113.61414 | 33117 ft | 486 kts | 12° |
| 2026-05-09 08:23 | 30.04367 | 113.64494 | 33109 ft | 484 kts | 11° |
| 2026-05-09 08:23 | 30.10562 | 113.67561 | 33104 ft | 485 kts | 12° |
| 2026-05-09 08:24 | 30.16751 | 113.70642 | 33119 ft | 484 kts | 12° |
| 2026-05-09 08:24 | 30.22956 | 113.73745 | 33113 ft | 485 kts | 13° |
| 2026-05-09 08:25 | 30.29107 | 113.76826 | 33109 ft | 482 kts | 13° |
| 2026-05-09 08:25 | 30.35271 | 113.79919 | 33112 ft | 483 kts | 13° |
| 2026-05-09 08:26 | 30.41438 | 113.83015 | 33109 ft | 481 kts | 13° |
| 2026-05-09 08:26 | 30.47586 | 113.86108 | 33101 ft | 480 kts | 13° |
| 2026-05-09 08:27 | 30.53698 | 113.89187 | 33125 ft | 481 kts | 14° |
| 2026-05-09 08:27 | 30.59840 | 113.92282 | 33108 ft | 480 kts | 14° |
| 2026-05-09 08:28 | 30.65960 | 113.95351 | 33117 ft | 478 kts | 13° |
| 2026-05-09 08:28 | 30.72050 | 113.98408 | 33121 ft | 481 kts | 16° |
| 2026-05-09 08:29 | 30.78074 | 114.01778 | 33112 ft | 480 kts | 17° |
| 2026-05-09 08:29 | 30.84102 | 114.05061 | 33108 ft | 478 kts | 16° |
| 2026-05-09 08:30 | 30.90157 | 114.08324 | 33113 ft | 478 kts | 17° |
| 2026-05-09 08:30 | 30.96177 | 114.11586 | 33124 ft | 478 kts | 17° |
| 2026-05-09 08:31 | 31.02164 | 114.14843 | 33122 ft | 475 kts | 17° |
| 2026-05-09 08:31 | 31.08140 | 114.18091 | 33107 ft | 474 kts | 17° |
| 2026-05-09 08:32 | 31.14134 | 114.21351 | 33102 ft | 474 kts | 17° |
| 2026-05-09 08:33 | 31.23111 | 114.26241 | 33130 ft | 474 kts | 17° |
| 2026-05-09 08:33 | 31.29155 | 114.29430 | 33106 ft | 474 kts | 14° |
| 2026-05-09 08:34 | 31.35321 | 114.31779 | 33107 ft | 463 kts | 6° |
| 2026-05-09 08:34 | 31.41580 | 114.33140 | 33105 ft | 454 kts | 359° |
| 2026-05-09 08:35 | 31.47855 | 114.33588 | 33115 ft | 448 kts | 353° |
| 2026-05-09 08:35 | 31.54080 | 114.33742 | 33095 ft | 448 kts | 353° |
| 2026-05-09 08:36 | 31.60291 | 114.33904 | 33095 ft | 449 kts | 354° |
| 2026-05-09 08:36 | 31.66563 | 114.34084 | 33106 ft | 449 kts | 354° |
| 2026-05-09 08:37 | 31.72789 | 114.34264 | 33088 ft | 449 kts | 354° |
| 2026-05-09 08:37 | 31.79048 | 114.34456 | 33101 ft | 448 kts | 354° |
| 2026-05-09 08:38 | 31.85256 | 114.34646 | 33097 ft | 447 kts | 354° |
| 2026-05-09 08:38 | 31.91478 | 114.34834 | 33098 ft | 448 kts | 354° |
| 2026-05-09 08:39 | 31.97730 | 114.35023 | 33100 ft | 447 kts | 354° |
| 2026-05-09 08:39 | 32.03944 | 114.35211 | 33082 ft | 449 kts | 354° |
| 2026-05-09 08:40 | 32.10190 | 114.35402 | 33085 ft | 448 kts | 354° |
| 2026-05-09 08:40 | 32.16384 | 114.35589 | 33074 ft | 447 kts | 354° |
| 2026-05-09 08:41 | 32.22621 | 114.35775 | 33066 ft | 447 kts | 354° |
| 2026-05-09 08:41 | 32.28870 | 114.36143 | 33063 ft | 450 kts | 356° |
| 2026-05-09 08:42 | 32.35107 | 114.36718 | 33056 ft | 450 kts | 357° |
| 2026-05-09 08:42 | 32.41354 | 114.37298 | 33049 ft | 450 kts | 356° |
| 2026-05-09 08:43 | 32.47596 | 114.37869 | 33045 ft | 450 kts | 356° |
| 2026-05-09 08:43 | 32.53840 | 114.38439 | 33044 ft | 451 kts | 356° |
| 2026-05-09 08:44 | 32.60080 | 114.39011 | 33046 ft | 450 kts | 356° |
| 2026-05-09 08:44 | 32.66307 | 114.39583 | 33043 ft | 450 kts | 356° |
| 2026-05-09 08:45 | 32.72558 | 114.40166 | 33039 ft | 451 kts | 356° |
| 2026-05-09 08:45 | 32.78830 | 114.40752 | 33037 ft | 449 kts | 356° |
| 2026-05-09 08:46 | 32.85053 | 114.41334 | 33035 ft | 449 kts | 356° |
| 2026-05-09 08:46 | 32.91273 | 114.41914 | 33037 ft | 449 kts | 356° |
| 2026-05-09 08:47 | 32.97473 | 114.42493 | 33026 ft | 449 kts | 356° |
| 2026-05-09 08:47 | 33.03718 | 114.43078 | 33025 ft | 449 kts | 356° |
| 2026-05-09 08:48 | 33.09964 | 114.43662 | 33025 ft | 448 kts | 356° |
| 2026-05-09 08:48 | 33.16202 | 114.44248 | 33024 ft | 449 kts | 356° |
| 2026-05-09 08:49 | 33.22417 | 114.44830 | 33020 ft | 449 kts | 356° |
| 2026-05-09 08:49 | 33.28627 | 114.45416 | 33016 ft | 448 kts | 355° |
| 2026-05-09 08:50 | 33.34855 | 114.46002 | 33013 ft | 449 kts | 355° |